Portada
METAR-TAF:

METAR-TAF

Aeropuertos :

Lee's Summit Municipal Airport

Lee's Summit, Misuri, Estados Unidos

latitud: 38-57-35N, longitud: 094-22-18W, altitud: 306 m

Observación

El informe se hizo hace 47 minutos, a las 07:53 UTC
Viento 4 kt del sur-sureste
Temperatura 24°C
Humedad 83%
Presión 1015 hPa
Visibilidad: 16.1 km
Cielo despejado

METAR: KLXT 060753Z AUTO 15004KT 10SM CLR 24/21 A2997 RMK AO2 SLP139 T02440206

Hora: 03:40 (08:40 UTC)


TAF: falta

Observaciones y pronósticos meteorológicos de más de 4000 aeropuertos (mensajes METAR y TAF).

Los puntos amarillos y rojos representan las estaciones disponibles.

Ponga el ratón en el punto deseado para ver el nombre de la estación.

Haga clic para ver las observaciones y los pronósticos meteorológicos.

Para cambiar el mapa : haga clic en los botones verdes con una cruz de color negro para hacer un zoom, en el botón verde con un guión para alejar o en las flechas verdes para mapas adyacentes.


METAR-TAF: